Terminal Aerodrome Forecast
Issued by NWS

Home | Current Version | Previous Version | Text Only | Print | Product List | Glossary On
Versions: 1 2 3 4 5 6 7 8 9 10 11 12 13 14
000
FTUS46 KMTR 291100
TAFSJC
TAF
KSJC 291127Z 2912/3012 VRB03KT P6SM FEW200
     FM292000 30005KT P6SM FEW200
     FM292300 30010KT P6SM FEW200
     FM300500 VRB03KT P6SM SCT200=

USA.gov is the U.S. government's official web portal to all federal, state and local government web resources and services.